createdAt,value
2022-08-05T00:00:52.699Z,99.04
2022-08-05T00:01:53.199Z,99.06
2022-08-05T00:02:53.689Z,99.04
2022-08-05T00:03:53.743Z,99.05
2022-08-05T00:04:55.300Z,99.25
2022-08-05T00:06:05.165Z,99.18
2022-08-05T00:06:57.573Z,99.02
2022-08-05T00:07:59.862Z,99.06
2022-08-05T00:08:58.699Z,98.99
2022-08-05T00:09:59.114Z,98.97
2022-08-05T00:11:01.465Z,98.75
2022-08-05T00:12:00.121Z,98.57
2022-08-05T00:13:00.353Z,98.53
2022-08-05T00:14:00.980Z,98.35
2022-08-05T00:15:54.141Z,98.42
2022-08-05T00:16:04.277Z,98.19
2022-08-05T00:17:03.840Z,98.29
2022-08-05T00:18:06.436Z,98.56
2022-08-05T00:19:06.916Z,98.86
2022-08-05T00:20:08.206Z,98.89
2022-08-05T00:21:08.272Z,98.87
2022-08-05T00:22:08.296Z,98.8
2022-08-05T00:23:13.144Z,98.54
2022-08-05T00:24:16.090Z,98.22
2022-08-05T00:25:13.950Z,98.1
2022-08-05T00:26:16.396Z,98.26
2022-08-05T00:27:16.877Z,98.5
2022-08-05T00:28:15.400Z,98.33
2022-08-05T00:29:18.994Z,98.2
2022-08-05T00:30:20.842Z,98.32
2022-08-05T00:31:53.084Z,98.49
2022-08-05T00:32:25.776Z,98.73
2022-08-05T00:34:53.878Z,99.11
2022-08-05T00:34:56.203Z,99.22
2022-08-05T00:35:32.984Z,99.61
2022-08-05T00:37:12.315Z,99.51
2022-08-05T00:37:50.670Z,99.65
2022-08-05T00:38:36.266Z,99.53
2022-08-05T00:39:37.071Z,99.38
2022-08-05T00:41:51.712Z,99.66
2022-08-05T00:42:49.184Z,99.71
2022-08-05T00:43:50.005Z,99.46
2022-08-05T00:44:48.689Z,99.47
2022-08-05T00:45:49.927Z,99.47
2022-08-05T00:46:54.152Z,99.53
2022-08-05T00:48:04.920Z,99.66
2022-08-05T00:48:58.667Z,99.72
2022-08-05T00:49:58.967Z,99.67
2022-08-05T00:50:59.285Z,99.82
2022-08-05T00:52:00.114Z,99.77
2022-08-05T00:53:00.614Z,99.53
2022-08-05T00:54:03.085Z,99.64
2022-08-05T00:55:01.050Z,99.71
2022-08-05T00:56:01.368Z,99.76
2022-08-05T00:57:01.691Z,99.76
2022-08-05T00:58:02.597Z,99.42
2022-08-05T00:59:02.711Z,99.35
2022-08-05T01:00:06.515Z,99.31
2022-08-05T01:01:10.436Z,99.31
2022-08-05T01:02:09.499Z,99.29
2022-08-05T01:03:22.184Z,99.34
2022-08-05T01:04:13.807Z,99.2
2022-08-05T01:05:12.168Z,99.14
2022-08-05T01:06:15.224Z,99.11
2022-08-05T01:07:13.611Z,99.16
2022-08-05T01:08:42.276Z,99.26
2022-08-05T01:09:17.391Z,99.31
2022-08-05T01:12:22.274Z,98.83
2022-08-05T01:15:35.594Z,99.07
2022-08-05T01:29:55.131Z,98.78
2022-08-05T01:32:02.334Z,98.89
2022-08-05T01:32:58.934Z,99.11
2022-08-05T01:36:03.166Z,99.28
2022-08-05T01:38:08.592Z,99.38
2022-08-05T01:39:07.467Z,99.11
2022-08-05T01:40:10.213Z,99
2022-08-05T01:41:08.897Z,98.88
2022-08-05T01:43:21.995Z,99.05
2022-08-05T01:44:13.249Z,99.28
2022-08-05T01:45:15.300Z,99.57
2022-08-05T01:46:16.339Z,99.85
2022-08-05T01:47:21.561Z,100
2022-08-05T01:48:20.962Z,100
2022-08-05T01:51:29.412Z,100
2022-08-05T01:52:29.723Z,100
2022-08-05T01:53:58.075Z,99.93
2022-08-05T01:55:36.168Z,100
2022-08-05T01:58:09.772Z,100
2022-08-05T01:58:11.650Z,100
2022-08-05T01:58:44.724Z,99.68
2022-08-05T01:59:47.075Z,99.69
2022-08-05T02:00:52.058Z,99.85
2022-08-05T02:01:54.608Z,99.87
2022-08-05T02:03:57.649Z,99.61
2022-08-05T02:04:59.040Z,99.5
2022-08-05T02:05:57.932Z,99.48
2022-08-05T02:06:59.470Z,99.51
2022-08-05T02:08:01.260Z,99.64
2022-08-05T02:08:59.682Z,99.75
2022-08-05T02:10:00.635Z,99.65
2022-08-05T02:11:06.658Z,99.74
2022-08-05T02:16:25.537Z,99.61
2022-08-05T02:18:34.370Z,99.48
2022-08-05T02:19:36.525Z,99.63
2022-08-05T02:22:42.267Z,99.78
2022-08-05T02:23:40.226Z,99.93
2022-08-05T02:24:40.946Z,100
2022-08-05T02:25:50.169Z,100
2022-08-05T02:26:51.911Z,100
2022-08-05T02:27:59.398Z,100
2022-08-05T02:28:49.463Z,100
2022-08-05T02:29:58.921Z,99.85
2022-08-05T02:31:56.864Z,99.79
2022-08-05T02:32:58.719Z,99.79
2022-08-05T02:36:01.548Z,99.29
2022-08-05T02:37:04.612Z,99.28
2022-08-05T02:38:02.844Z,99.3
2022-08-05T02:39:08.634Z,99.36
2022-08-05T02:40:09.584Z,99.25
2022-08-05T02:41:17.262Z,99.21
2022-08-05T02:42:12.306Z,99.26
2022-08-05T02:43:18.337Z,99.13
2022-08-05T02:44:16.867Z,99.24
2022-08-05T02:45:17.837Z,99.29
2022-08-05T02:46:17.642Z,99.2
2022-08-05T02:47:21.819Z,99.08
2022-08-05T02:48:22.285Z,98.96
2022-08-05T02:49:23.098Z,98.85
2022-08-05T02:50:24.226Z,98.62
2022-08-05T02:51:42.378Z,98.74
2022-08-05T02:52:30.683Z,98.68
2022-08-05T02:53:39.795Z,98.73
2022-08-05T02:54:37.011Z,98.62
2022-08-05T02:55:53.723Z,98.58
2022-08-05T02:56:38.206Z,98.54
2022-08-05T02:58:11.186Z,98.62
2022-08-05T02:58:45.700Z,98.59
2022-08-05T02:59:52.042Z,98.53
2022-08-05T03:00:50.923Z,98.62
2022-08-05T03:01:52.029Z,98.47
2022-08-05T03:02:51.747Z,98.62
2022-08-05T03:04:56.473Z,98.89
2022-08-05T03:06:54.659Z,98.91
2022-08-05T03:06:59.473Z,98.81
2022-08-05T03:08:07.097Z,98.78
2022-08-05T03:09:01.923Z,98.62
2022-08-05T03:10:02.376Z,98.65
2022-08-05T03:11:55.382Z,98.61
2022-08-05T03:12:06.265Z,98.35
2022-08-05T03:14:13.233Z,98.2
2022-08-05T03:15:12.434Z,97.79
2022-08-05T03:16:11.604Z,97.43
2022-08-05T03:17:13.341Z,97.3
2022-08-05T03:18:14.392Z,96.98
2022-08-05T03:19:29.461Z,96.77
2022-08-05T03:20:16.865Z,96.72
2022-08-05T03:21:17.378Z,96.94
2022-08-05T03:22:22.169Z,97.04
2022-08-05T03:23:20.347Z,97.01
2022-08-05T03:24:29.988Z,96.88
2022-08-05T03:25:33.269Z,96.74
2022-08-05T03:26:31.980Z,96.5
2022-08-05T03:27:57.846Z,96.46
2022-08-05T03:28:33.486Z,96.43
2022-08-05T03:29:45.240Z,96.38
2022-08-05T03:30:38.344Z,96.57
2022-08-05T03:31:55.651Z,96.61
2022-08-05T03:32:40.167Z,96.61
2022-08-05T03:33:50.890Z,96.69
2022-08-05T03:34:51.210Z,96.93
2022-08-05T03:35:50.738Z,96.94
2022-08-05T03:36:50.337Z,97.08
2022-08-05T03:37:50.356Z,96.91
2022-08-05T03:38:53.368Z,96.65
2022-08-05T03:40:01.751Z,96.49
2022-08-05T03:40:57.674Z,96.27
2022-08-05T03:41:56.841Z,95.89
2022-08-05T03:42:57.339Z,95.63
2022-08-05T03:44:08.598Z,95.5
2022-08-05T03:44:59.186Z,95.45
2022-08-05T03:45:59.707Z,95.31
2022-08-05T03:47:00.017Z,95.6
2022-08-05T03:48:00.536Z,95.74
2022-08-05T03:49:01.879Z,95.91
2022-08-05T03:50:01.275Z,96.11
2022-08-05T03:57:29.028Z,95.19
2022-08-05T03:58:21.596Z,95.08
2022-08-05T03:59:29.055Z,94.83
2022-08-05T04:00:25.598Z,94.51
2022-08-05T04:01:26.989Z,94.41
2022-08-05T04:02:38.976Z,94.49
2022-08-05T04:03:29.322Z,94.48
2022-08-05T04:04:31.566Z,94.44
2022-08-05T04:05:34.012Z,94.45
2022-08-05T04:06:34.053Z,94.36
2022-08-05T04:07:34.247Z,94.2
2022-08-05T04:08:37.650Z,94.17
2022-08-05T04:09:37.654Z,93.92
2022-08-05T04:10:38.479Z,93.65
2022-08-05T04:11:47.645Z,93.74
2022-08-05T04:13:49.712Z,93.84
2022-08-05T04:14:44.756Z,93.7
2022-08-05T04:16:02.839Z,93.47
2022-08-05T04:16:45.963Z,93.45
2022-08-05T04:17:57.104Z,93.63
2022-08-05T04:18:54.323Z,93.79
2022-08-05T04:19:54.424Z,93.85
2022-08-05T04:20:57.779Z,93.81
2022-08-05T04:22:08.433Z,93.68
2022-08-05T04:22:58.925Z,93.45
2022-08-05T04:24:06.430Z,93.38
2022-08-05T04:24:59.448Z,93.22
2022-08-05T04:26:01.122Z,93
2022-08-05T04:27:00.387Z,92.67
2022-08-05T04:28:05.758Z,92.53
2022-08-05T04:29:07.203Z,92.5
2022-08-05T04:30:06.445Z,92.19
2022-08-05T04:31:08.383Z,92.07
2022-08-05T04:32:09.436Z,91.7
2022-08-05T04:33:08.515Z,91.34
2022-08-05T04:34:31.283Z,91.6
2022-08-05T04:35:17.575Z,91.59
2022-08-05T04:36:44.794Z,91.57
2022-08-05T04:37:15.095Z,91.71
2022-08-05T04:38:15.628Z,91.11
2022-08-05T04:39:15.870Z,90.81
2022-08-05T04:40:19.476Z,90.7
2022-08-05T04:41:17.265Z,90.54
2022-08-05T04:42:17.591Z,90.39
2022-08-05T04:43:22.825Z,90.09
2022-08-05T04:44:29.495Z,89.65
2022-08-05T04:45:48.532Z,89.24
2022-08-05T04:46:30.508Z,89.88
2022-08-05T04:47:30.725Z,89.74
2022-08-05T04:48:31.355Z,89.92
2022-08-05T04:49:38.807Z,89.61
2022-08-05T04:51:35.775Z,88.73
2022-08-05T04:52:36.303Z,88.67
2022-08-05T04:53:38.912Z,88.76
2022-08-05T04:54:37.017Z,88.97
2022-08-05T04:56:14.947Z,88.39
2022-08-05T04:56:40.916Z,87.98
2022-08-05T04:57:47.527Z,88.33
2022-08-05T04:58:45.545Z,88.49
2022-08-05T04:59:48.129Z,88.57
2022-08-05T05:00:46.614Z,88.34
2022-08-05T05:02:07.351Z,88.12
2022-08-05T05:02:51.948Z,87.72
2022-08-05T05:03:52.247Z,88.08
2022-08-05T05:04:52.743Z,87.83
2022-08-05T05:06:40.040Z,88.02
2022-08-05T05:06:58.084Z,87.06
2022-08-05T05:09:01.178Z,87.64
2022-08-05T05:10:04.046Z,87.26
2022-08-05T05:11:03.647Z,87.44
2022-08-05T05:12:04.467Z,86.01
2022-08-05T05:13:04.694Z,85.35
2022-08-05T05:14:04.791Z,86.27
2022-08-05T05:15:10.932Z,86.57
2022-08-05T05:16:08.698Z,86.12
2022-08-05T05:17:09.437Z,86.19
2022-08-05T05:18:10.136Z,84.67
2022-08-05T05:19:19.308Z,84.4
2022-08-05T05:20:12.889Z,85.35
2022-08-05T05:21:11.587Z,83.73
2022-08-05T05:22:23.943Z,83.95
2022-08-05T05:23:19.826Z,84.27
2022-08-05T05:24:17.884Z,83.31
2022-08-05T05:25:18.275Z,82.73
2022-08-05T05:26:18.922Z,82.34
2022-08-05T05:27:19.413Z,81.73
2022-08-05T05:28:19.739Z,81.78
2022-08-05T05:29:20.245Z,80.57
2022-08-05T05:30:29.213Z,80.18
2022-08-05T05:31:23.746Z,81.44
2022-08-05T05:32:24.269Z,80.68
2022-08-05T05:33:24.773Z,80.37
2022-08-05T05:34:26.905Z,81.11
2022-08-05T05:35:26.021Z,80.22
2022-08-05T05:36:28.691Z,79.04
2022-08-05T05:37:29.295Z,78.36
2022-08-05T05:38:29.838Z,77.72
2022-08-05T05:39:31.689Z,78.3
2022-08-05T05:40:33.311Z,78.8
2022-08-05T05:41:40.187Z,77.98
2022-08-05T05:42:33.536Z,78.46
2022-08-05T05:43:58.587Z,76.93
2022-08-05T05:44:37.487Z,77.35
2022-08-05T05:45:48.111Z,77.59
2022-08-05T05:46:40.936Z,76.61
2022-08-05T05:48:06.333Z,75.42
2022-08-05T05:48:44.609Z,76.21
2022-08-05T05:49:44.347Z,76.27
2022-08-05T05:50:45.167Z,75.33
2022-08-05T05:51:50.643Z,73.83
2022-08-05T05:52:48.777Z,73.78
2022-08-05T05:53:57.657Z,73.96
2022-08-05T05:54:51.557Z,74.72
2022-08-05T05:56:00.709Z,73.65
2022-08-05T05:56:55.852Z,72.15
2022-08-05T05:57:55.965Z,72.14
2022-08-05T05:59:03.079Z,72.54
2022-08-05T06:00:01.197Z,72.22
2022-08-05T06:01:04.881Z,72.16
2022-08-05T06:02:05.845Z,71.45
2022-08-05T06:03:05.947Z,72.05
2022-08-05T06:05:16.607Z,71.94
2022-08-05T06:06:14.546Z,71.12
2022-08-05T06:07:14.995Z,72.14
2022-08-05T06:08:15.275Z,71
2022-08-05T06:09:25.750Z,71.46
2022-08-05T06:10:24.404Z,70.02
2022-08-05T06:11:29.003Z,69.52
2022-08-05T06:12:27.616Z,70.56
2022-08-05T06:13:27.801Z,68.8
2022-08-05T06:14:28.884Z,69.29
2022-08-05T06:16:27.598Z,68.89
2022-08-05T06:16:32.836Z,69.79
2022-08-05T06:17:52.829Z,69.77
2022-08-05T06:18:36.864Z,69.42
2022-08-05T06:19:37.585Z,68.99
2022-08-05T06:20:37.469Z,69.31
2022-08-05T06:21:38.664Z,69.76
2022-08-05T06:22:40.474Z,68.7
2022-08-05T06:26:21.212Z,68.19
2022-08-05T06:27:17.345Z,68.55
2022-08-05T06:28:21.053Z,68.04
2022-08-05T06:29:23.684Z,68.41
2022-08-05T06:30:22.189Z,67.98
2022-08-05T06:31:22.806Z,68.78
2022-08-05T06:32:28.964Z,69.43
2022-08-05T06:34:00.507Z,70.43
2022-08-05T06:34:29.272Z,69.24
2022-08-05T06:36:09.261Z,68.74
2022-08-05T06:36:53.522Z,67.92
2022-08-05T06:37:56.586Z,67.32
2022-08-05T06:38:37.163Z,68.12
2022-08-05T06:39:36.443Z,67.4
2022-08-05T06:40:36.798Z,67.66
2022-08-05T06:41:41.262Z,67.54
2022-08-05T06:42:40.386Z,66.8
2022-08-05T06:43:57.835Z,67.36
2022-08-05T06:44:42.666Z,67.6
2022-08-05T06:46:06.855Z,67.02
2022-08-05T06:46:51.114Z,68.12
2022-08-05T06:48:36.809Z,66.52
2022-08-05T06:48:56.187Z,67.44
2022-08-05T06:50:01.495Z,67.9
2022-08-05T06:50:52.930Z,67.54
2022-08-05T06:51:53.549Z,67.88
2022-08-05T06:52:58.711Z,66.81
2022-08-05T06:54:01.999Z,65.38
2022-08-05T06:54:59.713Z,65.01
2022-08-05T06:56:01.579Z,65.24
2022-08-05T06:57:56.845Z,66.4
2022-08-05T06:58:20.086Z,65.16
2022-08-05T06:59:09.453Z,64.82
2022-08-05T07:00:10.377Z,65.09
2022-08-05T07:01:10.064Z,65.42
2022-08-05T07:02:10.832Z,65.12
2022-08-05T07:03:11.350Z,65.2
2022-08-05T07:04:13.952Z,65.19
2022-08-05T07:05:18.508Z,65.06
2022-08-05T07:06:17.093Z,64.67
2022-08-05T07:07:24.079Z,64.06
2022-08-05T07:08:20.694Z,63.85
2022-08-05T07:09:24.870Z,64.3
2022-08-05T07:10:23.162Z,64.34
2022-08-05T07:11:25.421Z,63.49
2022-08-05T07:12:25.332Z,63.99
2022-08-05T07:13:52.478Z,64.55
2022-08-05T07:14:29.455Z,64.94
2022-08-05T07:15:34.495Z,64.03
2022-08-05T07:17:57.346Z,63.57
2022-08-05T07:17:59.724Z,63.26
2022-08-05T07:18:35.815Z,63.96
2022-08-05T07:20:39.821Z,63.36
2022-08-05T07:22:00.643Z,63.12
2022-08-05T07:22:41.903Z,62.47
2022-08-05T07:23:49.890Z,62.63
2022-08-05T07:24:52.445Z,61.87
2022-08-05T07:25:55.297Z,62.21
2022-08-05T07:26:48.860Z,61.94
2022-08-05T07:27:57.086Z,61.26
2022-08-05T07:28:51.261Z,61.39
2022-08-05T07:30:28.132Z,61.62
2022-08-05T07:30:55.103Z,61.52
2022-08-05T07:31:55.350Z,61.62
2022-08-05T07:32:54.916Z,60.96
2022-08-05T07:33:54.755Z,61.01
2022-08-05T07:34:57.958Z,60.75
2022-08-05T07:36:19.631Z,60.54
2022-08-05T07:36:59.891Z,60.66
2022-08-05T07:38:00.216Z,60.54
2022-08-05T07:39:02.130Z,60.53
2022-08-05T07:40:32.081Z,60.38
2022-08-05T07:42:06.975Z,60.61
2022-08-05T07:42:14.163Z,60.84
2022-08-05T07:43:20.084Z,59.46
2022-08-05T07:44:19.210Z,59.38
2022-08-05T07:45:16.913Z,59.85
2022-08-05T07:46:24.432Z,59.41
2022-08-05T07:47:25.821Z,58.08
2022-08-05T07:49:03.026Z,57.71
2022-08-05T07:49:26.091Z,58.14
2022-08-05T07:50:32.451Z,59.05
2022-08-05T07:51:37.018Z,58.05
2022-08-05T07:53:50.507Z,57.37
2022-08-05T07:54:49.161Z,56.95
2022-08-05T07:56:06.412Z,57.14
2022-08-05T07:57:01.662Z,57.05
2022-08-05T07:58:02.404Z,57.2
2022-08-05T07:58:58.758Z,57.34
2022-08-05T07:59:56.662Z,57.62
2022-08-05T08:00:57.126Z,57.22
2022-08-05T08:01:57.935Z,57.46
2022-08-05T08:03:13.559Z,57.76
2022-08-05T08:03:58.235Z,58.23
2022-08-05T08:04:58.846Z,57.95
2022-08-05T08:05:58.747Z,57.59
2022-08-05T08:06:59.175Z,57
2022-08-05T08:08:00.714Z,56.31
2022-08-05T08:08:59.819Z,55.5
2022-08-05T08:10:00.172Z,56.3
2022-08-05T08:11:00.592Z,54.92
2022-08-05T08:12:09.343Z,55.27
2022-08-05T08:13:04.222Z,57.44
2022-08-05T08:14:04.538Z,56.69
2022-08-05T08:15:09.696Z,55.4
2022-08-05T08:16:49.935Z,54.51
2022-08-05T08:17:10.309Z,54.64
2022-08-05T08:18:14.221Z,54.81
2022-08-05T08:19:18.723Z,55.52
2022-08-05T08:20:42.834Z,54.87
2022-08-05T08:21:19.117Z,54.04
2022-08-05T08:22:18.652Z,54.34
2022-08-05T08:24:03.014Z,54.46
2022-08-05T08:24:21.084Z,55.31
2022-08-05T08:25:26.959Z,54.72
2022-08-05T08:26:29.364Z,54.95
2022-08-05T08:27:40.146Z,54.9
2022-08-05T08:28:37.085Z,54.64
2022-08-05T08:30:03.528Z,53.69
2022-08-05T08:30:47.371Z,53.2
2022-08-05T08:31:40.485Z,53.19
2022-08-05T08:32:41.763Z,52.69
2022-08-05T08:33:41.325Z,52.3
2022-08-05T08:34:41.527Z,52.76
2022-08-05T08:35:53.870Z,52.72
2022-08-05T08:36:47.657Z,52.49
2022-08-05T08:37:47.285Z,52.62
2022-08-05T08:38:53.241Z,53.29
2022-08-05T08:39:51.543Z,52.96
2022-08-05T08:40:51.922Z,52.92
2022-08-05T08:41:59.946Z,52.29
2022-08-05T08:42:54.726Z,51.94
2022-08-05T08:45:18.597Z,52.77
2022-08-05T08:45:19.346Z,52.93
2022-08-05T08:46:03.321Z,53.21
2022-08-05T08:47:21.693Z,52.52
2022-08-05T08:48:22.264Z,53.09
2022-08-05T08:50:07.663Z,53.85
2022-08-05T08:50:31.660Z,53.43
2022-08-05T08:52:02.270Z,52.26
2022-08-05T08:52:23.139Z,51.84
2022-08-05T08:53:18.524Z,52.24
2022-08-05T08:54:17.405Z,50.83
2022-08-05T08:55:19.557Z,49.81
2022-08-05T08:56:20.278Z,50.09
2022-08-05T08:57:20.285Z,50.74
2022-08-05T08:58:20.804Z,51.16
2022-08-05T08:59:27.735Z,50.74
2022-08-05T09:00:27.356Z,51.44
2022-08-05T09:01:26.896Z,51.67
2022-08-05T09:02:27.684Z,51.21
2022-08-05T09:03:28.312Z,51.24
2022-08-05T09:04:30.394Z,51.42
2022-08-05T09:05:38.931Z,49.8
2022-08-05T09:06:31.674Z,49.9
2022-08-05T09:07:39.803Z,50.21
2022-08-05T09:08:33.564Z,50.74
2022-08-05T09:09:35.802Z,50.17
2022-08-05T09:10:35.742Z,50.73
2022-08-05T09:11:52.204Z,50.1
2022-08-05T09:12:37.892Z,50.78
2022-08-05T09:14:09.069Z,50.4
2022-08-05T09:14:57.193Z,49.06
2022-08-05T09:15:41.914Z,52
2022-08-05T09:16:42.209Z,50.57
2022-08-05T09:17:49.635Z,50.19
2022-08-05T09:18:47.562Z,49.26
2022-08-05T09:19:55.076Z,48.94
2022-08-05T09:20:47.974Z,50.2
2022-08-05T09:22:23.393Z,50.8
2022-08-05T09:24:59.704Z,50.16
2022-08-05T09:27:01.121Z,50.85
2022-08-05T09:29:05.544Z,49.6
2022-08-05T09:30:07.833Z,50.21
2022-08-05T09:31:43.748Z,49.47
2022-08-05T09:32:42.168Z,49.69
2022-08-05T09:33:15.269Z,50.14
2022-08-05T09:34:14.814Z,50.46
2022-08-05T09:35:26.705Z,50.95
2022-08-05T09:36:16.504Z,50.52
2022-08-05T09:38:13.075Z,51.13
2022-08-05T09:38:18.671Z,51.05
2022-08-05T09:39:21.997Z,50.15
2022-08-05T09:41:23.742Z,50.57
2022-08-05T09:42:28.150Z,50.74
2022-08-05T09:43:40.977Z,51.54
2022-08-05T09:46:07.278Z,50.93
2022-08-05T09:46:35.049Z,51.09
2022-08-05T09:47:55.431Z,51.33
2022-08-05T09:48:37.917Z,52.51
2022-08-05T09:50:44.850Z,50.98
2022-08-05T09:51:42.749Z,51.51
2022-08-05T09:52:45.058Z,51.08
2022-08-05T09:56:52.536Z,53
2022-08-05T09:57:54.564Z,53.1
2022-08-05T09:58:57.653Z,52.44
2022-08-05T10:00:03.628Z,53.22
2022-08-05T10:01:02.066Z,52.21
2022-08-05T10:02:01.290Z,52.62
2022-08-05T10:03:09.717Z,53
2022-08-05T10:04:10.680Z,53.31
2022-08-05T10:05:05.980Z,52.7
2022-08-05T10:06:14.869Z,52.11
2022-08-05T10:07:31.819Z,50.95
2022-08-05T10:08:37.596Z,51.58
2022-08-05T10:10:16.465Z,52.03
2022-08-05T10:11:17.077Z,52.62
2022-08-05T10:12:30.969Z,53.19
2022-08-05T10:14:28.265Z,52.41
2022-08-05T10:15:27.652Z,51.92
2022-08-05T10:16:30.856Z,51.18
2022-08-05T10:17:37.874Z,52.47
2022-08-05T10:18:33.405Z,52.91
2022-08-05T10:20:03.754Z,52.3
2022-08-05T10:21:40.102Z,52.65
2022-08-05T10:22:43.139Z,52.52
2022-08-05T10:23:55.844Z,52.38
2022-08-05T10:24:46.975Z,52.16
2022-08-05T10:25:48.611Z,51.45
2022-08-05T10:26:52.341Z,51.31
2022-08-05T10:28:12.887Z,50.79
2022-08-05T10:28:53.064Z,51.2
2022-08-05T10:31:20.356Z,51.83
2022-08-05T10:32:50.784Z,52.02
2022-08-05T10:32:53.355Z,51.46
2022-08-05T10:33:03.339Z,51.6
2022-08-05T10:34:01.973Z,52.06
2022-08-05T10:35:02.394Z,52.93
2022-08-05T10:36:03.948Z,53.03
2022-08-05T10:37:02.913Z,53.62
2022-08-05T10:38:04.463Z,52.49
2022-08-05T10:42:18.812Z,52.64
2022-08-05T10:44:20.381Z,53.12
2022-08-05T10:46:23.833Z,52.12
2022-08-05T10:47:31.173Z,52.33
2022-08-05T10:49:32.882Z,51.99
2022-08-05T10:50:36.237Z,52.65
2022-08-05T10:52:46.988Z,51.93
2022-08-05T10:56:55.581Z,50.14
2022-08-05T10:59:12.807Z,51.8
2022-08-05T11:01:06.872Z,51.48
2022-08-05T11:02:38.055Z,51.32
2022-08-05T11:03:25.508Z,50.48
2022-08-05T11:05:13.949Z,51.93
2022-08-05T11:06:17.668Z,52.04
2022-08-05T11:07:16.626Z,51.51
2022-08-05T11:08:36.707Z,50.08
2022-08-05T11:15:00.956Z,52.83
2022-08-05T11:16:00.120Z,52.53
2022-08-05T11:16:56.116Z,52.43
2022-08-05T11:18:00.053Z,51.41
2022-08-05T11:18:47.122Z,52.02
2022-08-05T11:20:17.545Z,52.18
2022-08-05T11:20:49.585Z,52.21
2022-08-05T11:21:49.778Z,51.8
2022-08-05T11:22:53.948Z,51.45
2022-08-05T11:24:04.819Z,51.28
2022-08-05T11:29:12.984Z,50.73
2022-08-05T11:30:11.444Z,52.05
2022-08-05T11:34:18.050Z,51.65
2022-08-05T11:42:47.163Z,53.49
2022-08-05T11:44:54.027Z,52.58
2022-08-05T11:46:14.914Z,52.83
2022-08-05T11:46:58.365Z,51.9
2022-08-05T11:47:58.640Z,51.87
2022-08-05T11:48:59.598Z,51.59
2022-08-05T11:49:59.089Z,52.04
2022-08-05T11:50:58.790Z,50.93
2022-08-05T11:51:59.818Z,51.44
2022-08-05T11:53:06.319Z,51.98
2022-08-05T11:54:03.008Z,52.7
2022-08-05T11:55:07.140Z,53.23
2022-08-05T11:56:05.886Z,52.92
2022-08-05T11:57:24.966Z,53.49
2022-08-05T11:58:24.746Z,52.18
2022-08-05T11:59:21.475Z,52.85
2022-08-05T12:00:31.694Z,52.63
2022-08-05T12:01:21.791Z,52.02
2022-08-05T12:02:31.467Z,51.61
2022-08-05T12:03:29.556Z,51.92
2022-08-05T12:04:25.804Z,51.46
2022-08-05T12:05:36.164Z,51.52
2022-08-05T12:06:27.875Z,51.75
2022-08-05T12:08:03.577Z,51.8
2022-08-05T12:08:32.882Z,52.58
2022-08-05T12:09:53.026Z,52.02
2022-08-05T12:10:45.612Z,52.44
2022-08-05T12:11:39.740Z,52.81
2022-08-05T12:12:39.386Z,51.42
2022-08-05T12:13:48.920Z,51.26
2022-08-05T12:14:43.485Z,50.96
2022-08-05T12:15:49.788Z,50.45
2022-08-05T12:16:48.322Z,51.4
2022-08-05T12:18:04.033Z,51.04
2022-08-05T12:18:53.055Z,51.52
2022-08-05T12:20:52.948Z,52.48
2022-08-05T12:21:53.362Z,52.85
2022-08-05T12:24:00.119Z,51.49
2022-08-05T12:24:57.074Z,52.33
2022-08-05T12:25:57.685Z,52.59
2022-08-05T12:26:57.908Z,53.85
2022-08-05T12:27:58.327Z,54.57
2022-08-05T12:29:01.475Z,54.32
2022-08-05T12:30:03.543Z,53.56
2022-08-05T12:31:02.631Z,52.56
2022-08-05T12:32:02.440Z,52.2
2022-08-05T12:33:07.415Z,52.77
2022-08-05T12:34:07.469Z,53.53
2022-08-05T12:35:06.348Z,53.67
2022-08-05T12:36:08.844Z,54.92
2022-08-05T12:37:09.023Z,54.26
2022-08-05T12:38:06.980Z,53.81
2022-08-05T12:39:08.113Z,55.13
2022-08-05T12:40:10.405Z,54.53
2022-08-05T12:42:14.304Z,53.54
2022-08-05T12:43:12.535Z,53.54
2022-08-05T12:44:28.418Z,53.73
2022-08-05T12:45:15.953Z,53.01
2022-08-05T12:48:32.725Z,54.36
2022-08-05T12:49:25.732Z,54
2022-08-05T12:50:27.964Z,53.94
2022-08-05T12:52:13.013Z,53.62
2022-08-05T12:52:38.724Z,53.21
2022-08-05T12:53:37.071Z,51.99
2022-08-05T12:54:36.671Z,51.89
2022-08-05T12:55:36.792Z,51.78
2022-08-05T12:56:42.523Z,53.23
2022-08-05T12:58:38.569Z,52.54
2022-08-05T12:58:52.303Z,52.92
2022-08-05T13:01:57.782Z,52.89
2022-08-05T13:02:01.518Z,53.19
2022-08-05T13:02:55.525Z,51.41
2022-08-05T13:03:55.585Z,51.14
2022-08-05T13:04:55.699Z,51.99
2022-08-05T13:05:56.419Z,51.85
2022-08-05T13:08:00.869Z,51.17
2022-08-05T13:11:08.158Z,51.13
2022-08-05T13:13:11.319Z,50.35
2022-08-05T13:15:18.151Z,51.12
2022-08-05T13:16:17.235Z,52.01
2022-08-05T13:18:20.548Z,49.66
2022-08-05T13:19:22.309Z,49.06
2022-08-05T13:20:24.638Z,47.79
2022-08-05T13:21:23.757Z,48.27
2022-08-05T13:22:28.325Z,48.12
2022-08-05T13:23:27.563Z,47.82
2022-08-05T13:24:50.987Z,48.11
2022-08-05T13:25:52.017Z,47.55
2022-08-05T13:26:33.515Z,48.16
2022-08-05T13:27:37.982Z,48.7
2022-08-05T13:28:36.393Z,49.21
2022-08-05T13:30:35.313Z,49.48
2022-08-05T13:30:44.086Z,49.18
2022-08-05T13:32:04.131Z,49.32
2022-08-05T13:32:50.510Z,48.74
2022-08-05T13:34:23.559Z,49.2
2022-08-05T13:34:51.076Z,49.16
2022-08-05T13:35:51.963Z,48.62
2022-08-05T13:36:51.615Z,48.67
2022-08-05T13:37:55.782Z,49.29
2022-08-05T13:38:53.639Z,50.37
2022-08-05T13:40:16.782Z,50.2
2022-08-05T13:40:56.182Z,50.46
2022-08-05T13:41:56.443Z,50.34
2022-08-05T13:42:56.868Z,50.76
2022-08-05T13:43:57.481Z,49.44
2022-08-05T13:44:58.932Z,49.16
2022-08-05T13:45:58.108Z,49.72
2022-08-05T13:47:02.562Z,49.53
2022-08-05T13:48:08.948Z,49.29
2022-08-05T13:49:03.775Z,49.17
2022-08-05T13:50:06.563Z,49.57
2022-08-05T13:51:11.765Z,48.95
2022-08-05T13:53:16.026Z,49.14
2022-08-05T13:54:15.121Z,49.69
2022-08-05T13:55:14.044Z,48.63
2022-08-05T13:56:18.450Z,48.64
2022-08-05T13:57:16.826Z,48.97
2022-08-05T13:58:23.313Z,49.03
2022-08-05T13:59:24.767Z,49.75
2022-08-05T14:00:26.968Z,50.37
2022-08-05T14:01:36.405Z,50.79
2022-08-05T14:02:29.760Z,51.22
2022-08-05T14:03:28.902Z,51.89
2022-08-05T14:06:04.602Z,51.24
2022-08-05T14:06:34.391Z,51.66
2022-08-05T14:07:59.681Z,51.14
2022-08-05T14:08:39.655Z,50.92
2022-08-05T14:09:46.067Z,50.92
2022-08-05T14:10:43.935Z,50.63
2022-08-05T14:12:04.257Z,50.27
2022-08-05T14:12:48.611Z,50.31
2022-08-05T14:13:48.133Z,50.45
2022-08-05T14:14:48.177Z,50.32
2022-08-05T14:16:07.597Z,50.54
2022-08-05T14:16:51.253Z,50.31
2022-08-05T14:17:54.922Z,50.62
2022-08-05T14:18:55.462Z,51.07
2022-08-05T14:20:01.019Z,51.6
2022-08-05T14:20:57.212Z,51.45
2022-08-05T14:22:11.473Z,51.6
2022-08-05T14:23:00.174Z,52
2022-08-05T14:24:00.715Z,52.86
2022-08-05T14:25:00.527Z,52.23
2022-08-05T14:26:00.834Z,51.07
2022-08-05T14:27:17.561Z,52.04
2022-08-05T14:28:06.067Z,53.99
2022-08-05T14:29:15.938Z,53.1
2022-08-05T14:30:20.837Z,52.77
2022-08-05T14:31:17.495Z,54.29
2022-08-05T14:32:26.873Z,52.83
2022-08-05T14:33:23.162Z,52.18
2022-08-05T14:34:23.625Z,52.64
2022-08-05T14:35:23.004Z,52.82
2022-08-05T14:36:22.098Z,52.31
2022-08-05T14:37:22.724Z,51.21
2022-08-05T14:38:33.212Z,51.5
2022-08-05T14:39:23.693Z,52.77
2022-08-05T14:40:24.295Z,51.72
2022-08-05T14:41:24.173Z,52.07
2022-08-05T14:42:25.161Z,51.47
2022-08-05T14:43:59.160Z,51.91
2022-08-05T14:44:27.271Z,51.84
2022-08-05T14:45:27.787Z,52.22
2022-08-05T14:46:30.627Z,52.72
2022-08-05T14:48:03.475Z,51.13
2022-08-05T14:48:33.479Z,51.56
2022-08-05T14:49:56.526Z,51.6
2022-08-05T14:50:36.017Z,52.82
2022-08-05T14:51:38.685Z,51.69
2022-08-05T14:52:52.630Z,51.24
2022-08-05T14:53:44.193Z,51.45
2022-08-05T14:54:52.994Z,52.04
2022-08-05T14:55:48.351Z,51.65
2022-08-05T14:56:51.013Z,51.63
2022-08-05T14:57:54.742Z,51.55
2022-08-05T14:58:53.981Z,51.92
2022-08-05T14:59:54.304Z,52.43
2022-08-05T15:00:59.841Z,52.75
2022-08-05T15:01:58.253Z,52.62
2022-08-05T15:02:58.314Z,52.44
2022-08-05T15:03:59.153Z,52.75
2022-08-05T15:04:59.159Z,52.64
2022-08-05T15:06:07.019Z,53.95
2022-08-05T15:07:01.218Z,53.4
2022-08-05T15:08:06.461Z,53.08
2022-08-05T15:09:04.199Z,53.28
2022-08-05T15:10:04.507Z,53.64
2022-08-05T15:11:07.681Z,53.25
2022-08-05T15:12:09.033Z,52.67
2022-08-05T15:13:09.883Z,52.82
2022-08-05T15:14:08.514Z,53.44
2022-08-05T15:15:15.317Z,53.59